Open Full Screen Window  High Contrast Mode
Wind Gusting 00 knots
05
May 26, 2018 1:43 AM EDT
Weather Information
Wind Direction
  220 °
Wind Speed
  05 kt (6 mph)
Wind Gust
  00 kt (0 mph)
Altimeter
29.87 in
Visibility
10 SM
Temperature
18° C
64° F
Dewpoint
14° C
57° F
Humidity
78%
1hr Rain Fall
00.00 in.
24hr Rain Fall
00.00 in.
Sky Condition
Clear
VFR

METAR KMRT 260543Z AUTO 22005KT 10SM CLR 18/14 A2987 RMK AO2 T01820143 10276 20177 403020117

FAA Disclaimer: The data displayed is for advisory purposes only and is not to be used for flight planning or operations.